sensor_id;sensor_type;location;lat;lon;timestamp;temperature;humidity
8313;DHT22;4194;43.408;24.626;2022-09-01T00:01:12;18.90;99.90
8313;DHT22;4194;43.408;24.626;2022-09-01T00:03:48;19.40;99.90
8313;DHT22;4194;43.408;24.626;2022-09-01T00:06:18;19.90;99.90
8313;DHT22;4194;43.408;24.626;2022-09-01T00:08:57;18.70;99.90
8313;DHT22;4194;43.408;24.626;2022-09-01T00:11:25;17.50;99.90
8313;DHT22;4194;43.408;24.626;2022-09-01T00:13:52;18.90;99.90
8313;DHT22;4194;43.408;24.626;2022-09-01T00:16:19;18.90;99.90
8313;DHT22;4194;43.408;24.626;2022-09-01T00:18:48;18.80;99.90
8313;DHT22;4194;43.408;24.626;2022-09-01T00:21:19;19.70;99.90
8313;DHT22;4194;43.408;24.626;2022-09-01T00:23:46;18.90;99.90
8313;DHT22;4194;43.408;24.626;2022-09-01T00:26:11;18.20;99.90
8313;DHT22;4194;43.408;24.626;2022-09-01T00:28:38;18.80;99.90
8313;DHT22;4194;43.408;24.626;2022-09-01T00:31:05;18.80;99.90
8313;DHT22;4194;43.408;24.626;2022-09-01T00:33:33;18.90;99.90
8313;DHT22;4194;43.408;24.626;2022-09-01T00:35:59;18.80;99.90
8313;DHT22;4194;43.408;24.626;2022-09-01T00:38:25;19.00;99.90
8313;DHT22;4194;43.408;24.626;2022-09-01T00:40:51;18.80;99.90
8313;DHT22;4194;43.408;24.626;2022-09-01T00:43:23;18.80;99.90
8313;DHT22;4194;43.408;24.626;2022-09-01T00:46:00;19.40;99.90
8313;DHT22;4194;43.408;24.626;2022-09-01T00:48:25;18.60;99.90
8313;DHT22;4194;43.408;24.626;2022-09-01T00:50:51;18.80;99.90
8313;DHT22;4194;43.408;24.626;2022-09-01T00:53:17;18.20;99.90
8313;DHT22;4194;43.408;24.626;2022-09-01T00:55:43;18.60;99.90
8313;DHT22;4194;43.408;24.626;2022-09-01T00:58:09;18.70;99.90
8313;DHT22;4194;43.408;24.626;2022-09-01T01:00:36;18.80;99.90
8313;DHT22;4194;43.408;24.626;2022-09-01T01:03:07;19.40;99.90
8313;DHT22;4194;43.408;24.626;2022-09-01T01:05:57;18.80;99.90
8313;DHT22;4194;43.408;24.626;2022-09-01T01:08:30;18.80;99.90
8313;DHT22;4194;43.408;24.626;2022-09-01T01:11:00;18.70;99.90
8313;DHT22;4194;43.408;24.626;2022-09-01T01:13:27;18.70;99.90
8313;DHT22;4194;43.408;24.626;2022-09-01T01:15:53;18.80;99.90
8313;DHT22;4194;43.408;24.626;2022-09-01T01:18:18;18.00;99.90
8313;DHT22;4194;43.408;24.626;2022-09-01T01:20:45;18.70;99.90
8313;DHT22;4194;43.408;24.626;2022-09-01T01:26:45;18.80;99.90
8313;DHT22;4194;43.408;24.626;2022-09-01T01:29:12;18.90;99.90
8313;DHT22;4194;43.408;24.626;2022-09-01T01:31:37;19.90;99.90
8313;DHT22;4194;43.408;24.626;2022-09-01T01:34:03;18.90;99.90
8313;DHT22;4194;43.408;24.626;2022-09-01T01:36:34;20.00;99.90
8313;DHT22;4194;43.408;24.626;2022-09-01T01:39:07;19.40;99.90
8313;DHT22;4194;43.408;24.626;2022-09-01T01:41:35;18.60;99.90
8313;DHT22;4194;43.408;24.626;2022-09-01T01:44:05;18.60;99.90
8313;DHT22;4194;43.408;24.626;2022-09-01T01:46:33;18.90;99.90
8313;DHT22;4194;43.408;24.626;2022-09-01T01:48:59;18.70;99.90
8313;DHT22;4194;43.408;24.626;2022-09-01T01:51:27;18.50;99.90
8313;DHT22;4194;43.408;24.626;2022-09-01T01:53:56;18.60;99.90
8313;DHT22;4194;43.408;24.626;2022-09-01T01:56:26;19.90;99.90
8313;DHT22;4194;43.408;24.626;2022-09-01T01:58:53;18.80;99.90
8313;DHT22;4194;43.408;24.626;2022-09-01T02:01:22;18.60;99.90
8313;DHT22;4194;43.408;24.626;2022-09-01T02:03:50;18.50;99.90
8313;DHT22;4194;43.408;24.626;2022-09-01T02:06:19;19.20;99.90
8313;DHT22;4194;43.408;24.626;2022-09-01T02:11:12;18.90;99.90
8313;DHT22;4194;43.408;24.626;2022-09-01T02:13:41;17.10;99.90
8313;DHT22;4194;43.408;24.626;2022-09-01T02:16:10;18.40;99.90
8313;DHT22;4194;43.408;24.626;2022-09-01T02:18:40;18.40;99.90
8313;DHT22;4194;43.408;24.626;2022-09-01T02:21:09;18.90;99.90
8313;DHT22;4194;43.408;24.626;2022-09-01T02:23:37;18.70;99.90
8313;DHT22;4194;43.408;24.626;2022-09-01T02:26:04;18.20;99.90
8313;DHT22;4194;43.408;24.626;2022-09-01T02:28:33;18.90;99.90
8313;DHT22;4194;43.408;24.626;2022-09-01T02:31:02;19.70;99.90
8313;DHT22;4194;43.408;24.626;2022-09-01T02:33:30;18.80;99.90
8313;DHT22;4194;43.408;24.626;2022-09-01T02:36:03;18.20;99.90
8313;DHT22;4194;43.408;24.626;2022-09-01T02:38:30;17.40;99.90
8313;DHT22;4194;43.408;24.626;2022-09-01T02:40:59;18.20;99.90
8313;DHT22;4194;43.408;24.626;2022-09-01T02:43:27;18.30;99.90
8313;DHT22;4194;43.408;24.626;2022-09-01T02:45:59;17.30;99.90
8313;DHT22;4194;43.408;24.626;2022-09-01T02:48:35;18.30;99.90
8313;DHT22;4194;43.408;24.626;2022-09-01T02:51:08;17.30;99.90
8313;DHT22;4194;43.408;24.626;2022-09-01T02:53:34;19.30;99.90
8313;DHT22;4194;43.408;24.626;2022-09-01T02:56:01;19.20;99.90
8313;DHT22;4194;43.408;24.626;2022-09-01T02:58:29;18.90;99.90
8313;DHT22;4194;43.408;24.626;2022-09-01T03:00:58;18.20;99.90
8313;DHT22;4194;43.408;24.626;2022-09-01T03:03:24;19.60;99.90
8313;DHT22;4194;43.408;24.626;2022-09-01T03:05:51;18.60;99.90
8313;DHT22;4194;43.408;24.626;2022-09-01T03:08:22;18.20;99.90
8313;DHT22;4194;43.408;24.626;2022-09-01T03:10:49;18.10;99.90
8313;DHT22;4194;43.408;24.626;2022-09-01T03:13:21;19.50;99.90
8313;DHT22;4194;43.408;24.626;2022-09-01T03:15:48;18.50;99.90
8313;DHT22;4194;43.408;24.626;2022-09-01T03:18:15;18.10;99.90
8313;DHT22;4194;43.408;24.626;2022-09-01T03:20:43;18.10;99.90
8313;DHT22;4194;43.408;24.626;2022-09-01T03:23:13;19.00;99.90
8313;DHT22;4194;43.408;24.626;2022-09-01T03:25:41;18.50;99.90
8313;DHT22;4194;43.408;24.626;2022-09-01T03:28:08;17.80;99.90
8313;DHT22;4194;43.408;24.626;2022-09-01T03:30:35;18.70;99.90
8313;DHT22;4194;43.408;24.626;2022-09-01T03:33:06;19.30;99.90
8313;DHT22;4194;43.408;24.626;2022-09-01T03:35:32;18.30;99.90
8313;DHT22;4194;43.408;24.626;2022-09-01T03:37:59;17.20;99.90
8313;DHT22;4194;43.408;24.626;2022-09-01T03:40:31;17.50;99.90
8313;DHT22;4194;43.408;24.626;2022-09-01T03:43:02;16.50;99.90
8313;DHT22;4194;43.408;24.626;2022-09-01T03:45:29;17.80;99.90
8313;DHT22;4194;43.408;24.626;2022-09-01T03:47:55;18.60;99.90
8313;DHT22;4194;43.408;24.626;2022-09-01T03:50:23;18.50;99.90
8313;DHT22;4194;43.408;24.626;2022-09-01T03:52:53;16.70;99.90
8313;DHT22;4194;43.408;24.626;2022-09-01T03:55:23;17.60;99.90
8313;DHT22;4194;43.408;24.626;2022-09-01T03:57:57;18.60;99.90
8313;DHT22;4194;43.408;24.626;2022-09-01T04:00:26;18.00;99.90
8313;DHT22;4194;43.408;24.626;2022-09-01T04:02:56;17.90;99.90
8313;DHT22;4194;43.408;24.626;2022-09-01T04:05:24;17.10;99.90
8313;DHT22;4194;43.408;24.626;2022-09-01T04:07:55;18.00;99.90
8313;DHT22;4194;43.408;24.626;2022-09-01T04:10:21;17.40;99.90
8313;DHT22;4194;43.408;24.626;2022-09-01T04:12:48;17.50;99.90
8313;DHT22;4194;43.408;24.626;2022-09-01T04:15:15;17.10;99.90
8313;DHT22;4194;43.408;24.626;2022-09-01T04:17:43;19.30;99.90
8313;DHT22;4194;43.408;24.626;2022-09-01T04:20:27;18.20;99.90
8313;DHT22;4194;43.408;24.626;2022-09-01T04:22:54;18.60;99.90
8313;DHT22;4194;43.408;24.626;2022-09-01T04:25:20;17.10;99.90
8313;DHT22;4194;43.408;24.626;2022-09-01T04:27:50;19.10;99.90
8313;DHT22;4194;43.408;24.626;2022-09-01T04:30:21;19.00;99.90
8313;DHT22;4194;43.408;24.626;2022-09-01T04:35:16;18.70;99.90
8313;DHT22;4194;43.408;24.626;2022-09-01T04:37:43;18.70;99.90
8313;DHT22;4194;43.408;24.626;2022-09-01T04:40:12;19.70;99.90
8313;DHT22;4194;43.408;24.626;2022-09-01T04:42:39;17.50;99.90
8313;DHT22;4194;43.408;24.626;2022-09-01T04:45:06;18.40;99.90
8313;DHT22;4194;43.408;24.626;2022-09-01T04:50:07;19.80;99.90
8313;DHT22;4194;43.408;24.626;2022-09-01T04:52:43;19.30;99.90
8313;DHT22;4194;43.408;24.626;2022-09-01T04:55:11;18.20;99.90
8313;DHT22;4194;43.408;24.626;2022-09-01T04:57:43;18.50;99.90
8313;DHT22;4194;43.408;24.626;2022-09-01T05:00:16;18.50;99.90
8313;DHT22;4194;43.408;24.626;2022-09-01T05:02:55;18.90;99.90
8313;DHT22;4194;43.408;24.626;2022-09-01T05:05:29;18.60;99.90
8313;DHT22;4194;43.408;24.626;2022-09-01T05:08:01;19.30;99.90
8313;DHT22;4194;43.408;24.626;2022-09-01T05:10:27;19.70;99.90
8313;DHT22;4194;43.408;24.626;2022-09-01T05:15:25;18.50;99.90
8313;DHT22;4194;43.408;24.626;2022-09-01T05:17:50;18.80;99.90
8313;DHT22;4194;43.408;24.626;2022-09-01T05:20:19;20.50;99.90
8313;DHT22;4194;43.408;24.626;2022-09-01T05:22:46;18.40;99.90
8313;DHT22;4194;43.408;24.626;2022-09-01T05:25:11;18.70;99.90
8313;DHT22;4194;43.408;24.626;2022-09-01T05:27:42;20.20;99.90
8313;DHT22;4194;43.408;24.626;2022-09-01T05:30:14;19.70;99.90
8313;DHT22;4194;43.408;24.626;2022-09-01T05:32:41;20.00;99.90
8313;DHT22;4194;43.408;24.626;2022-09-01T05:35:08;20.20;99.90
8313;DHT22;4194;43.408;24.626;2022-09-01T05:37:35;19.90;99.90
8313;DHT22;4194;43.408;24.626;2022-09-01T05:40:07;19.90;99.90
8313;DHT22;4194;43.408;24.626;2022-09-01T05:42:43;20.00;99.90
8313;DHT22;4194;43.408;24.626;2022-09-01T05:45:10;20.00;99.90
8313;DHT22;4194;43.408;24.626;2022-09-01T05:47:40;20.80;99.90
8313;DHT22;4194;43.408;24.626;2022-09-01T05:50:06;20.10;99.90
8313;DHT22;4194;43.408;24.626;2022-09-01T05:52:37;20.10;99.90
8313;DHT22;4194;43.408;24.626;2022-09-01T05:55:03;20.70;99.90
8313;DHT22;4194;43.408;24.626;2022-09-01T05:57:32;20.20;99.90
8313;DHT22;4194;43.408;24.626;2022-09-01T05:59:59;20.30;99.90
8313;DHT22;4194;43.408;24.626;2022-09-01T06:02:26;20.20;99.90
8313;DHT22;4194;43.408;24.626;2022-09-01T06:04:53;20.50;99.90
8313;DHT22;4194;43.408;24.626;2022-09-01T06:07:21;20.40;99.90
8313;DHT22;4194;43.408;24.626;2022-09-01T06:09:48;20.80;99.90
8313;DHT22;4194;43.408;24.626;2022-09-01T06:12:15;21.00;99.90
8313;DHT22;4194;43.408;24.626;2022-09-01T06:14:49;21.00;99.90
8313;DHT22;4194;43.408;24.626;2022-09-01T06:17:17;21.00;99.90
8313;DHT22;4194;43.408;24.626;2022-09-01T06:19:43;21.00;99.90
8313;DHT22;4194;43.408;24.626;2022-09-01T06:22:10;20.60;99.90
8313;DHT22;4194;43.408;24.626;2022-09-01T06:24:37;20.20;99.90
8313;DHT22;4194;43.408;24.626;2022-09-01T06:27:05;21.20;99.90
8313;DHT22;4194;43.408;24.626;2022-09-01T06:29:33;20.90;99.90
8313;DHT22;4194;43.408;24.626;2022-09-01T06:31:59;21.50;99.90
8313;DHT22;4194;43.408;24.626;2022-09-01T06:34:26;21.60;99.90
8313;DHT22;4194;43.408;24.626;2022-09-01T06:36:52;21.90;99.90
8313;DHT22;4194;43.408;24.626;2022-09-01T06:39:18;22.70;99.90
8313;DHT22;4194;43.408;24.626;2022-09-01T06:41:48;22.10;99.90
8313;DHT22;4194;43.408;24.626;2022-09-01T06:44:17;21.50;99.90
8313;DHT22;4194;43.408;24.626;2022-09-01T06:46:52;22.40;99.90
8313;DHT22;4194;43.408;24.626;2022-09-01T06:49:19;22.60;99.90
8313;DHT22;4194;43.408;24.626;2022-09-01T06:51:46;22.80;99.90
8313;DHT22;4194;43.408;24.626;2022-09-01T06:54:12;22.40;99.90
8313;DHT22;4194;43.408;24.626;2022-09-01T06:56:40;22.10;99.90
8313;DHT22;4194;43.408;24.626;2022-09-01T06:59:05;23.60;99.90
8313;DHT22;4194;43.408;24.626;2022-09-01T07:01:32;22.40;99.90
8313;DHT22;4194;43.408;24.626;2022-09-01T07:03:59;23.60;99.90
8313;DHT22;4194;43.408;24.626;2022-09-01T07:06:26;23.10;99.90
8313;DHT22;4194;43.408;24.626;2022-09-01T07:08:56;24.90;99.90
8313;DHT22;4194;43.408;24.626;2022-09-01T07:11:25;24.30;99.90
8313;DHT22;4194;43.408;24.626;2022-09-01T07:13:56;23.80;99.90
8313;DHT22;4194;43.408;24.626;2022-09-01T07:16:24;25.00;99.90
8313;DHT22;4194;43.408;24.626;2022-09-01T07:18:53;25.40;99.90
8313;DHT22;4194;43.408;24.626;2022-09-01T07:21:24;23.90;99.90
8313;DHT22;4194;43.408;24.626;2022-09-01T07:23:50;23.20;99.90
8313;DHT22;4194;43.408;24.626;2022-09-01T07:26:17;25.60;99.90
8313;DHT22;4194;43.408;24.626;2022-09-01T07:28:47;24.60;99.90
8313;DHT22;4194;43.408;24.626;2022-09-01T07:31:37;23.90;99.90
8313;DHT22;4194;43.408;24.626;2022-09-01T07:34:06;23.40;99.90
8313;DHT22;4194;43.408;24.626;2022-09-01T07:36:37;25.60;99.90
8313;DHT22;4194;43.408;24.626;2022-09-01T07:39:04;24.80;99.90
8313;DHT22;4194;43.408;24.626;2022-09-01T07:41:30;24.10;99.90
8313;DHT22;4194;43.408;24.626;2022-09-01T07:43:57;24.20;99.90
8313;DHT22;4194;43.408;24.626;2022-09-01T07:46:23;24.20;99.90
8313;DHT22;4194;43.408;24.626;2022-09-01T07:48:52;25.00;99.90
8313;DHT22;4194;43.408;24.626;2022-09-01T07:51:20;23.60;99.90
8313;DHT22;4194;43.408;24.626;2022-09-01T07:53:47;25.00;99.90
8313;DHT22;4194;43.408;24.626;2022-09-01T07:56:16;24.30;99.90
8313;DHT22;4194;43.408;24.626;2022-09-01T07:58:44;24.70;99.90
8313;DHT22;4194;43.408;24.626;2022-09-01T08:01:22;24.90;99.90
8313;DHT22;4194;43.408;24.626;2022-09-01T08:03:51;25.20;99.90
8313;DHT22;4194;43.408;24.626;2022-09-01T08:06:18;25.50;99.90
8313;DHT22;4194;43.408;24.626;2022-09-01T08:08:49;24.80;99.90
8313;DHT22;4194;43.408;24.626;2022-09-01T08:11:17;25.60;99.90
8313;DHT22;4194;43.408;24.626;2022-09-01T08:16:10;26.90;99.90
8313;DHT22;4194;43.408;24.626;2022-09-01T08:18:36;24.90;99.90
8313;DHT22;4194;43.408;24.626;2022-09-01T08:21:09;25.40;99.90
8313;DHT22;4194;43.408;24.626;2022-09-01T08:23:36;26.40;99.90
8313;DHT22;4194;43.408;24.626;2022-09-01T08:26:08;26.60;99.90
8313;DHT22;4194;43.408;24.626;2022-09-01T08:28:34;25.50;99.90
8313;DHT22;4194;43.408;24.626;2022-09-01T08:31:04;26.90;99.90
8313;DHT22;4194;43.408;24.626;2022-09-01T08:33:30;26.20;99.90
8313;DHT22;4194;43.408;24.626;2022-09-01T08:36:00;26.50;99.90
8313;DHT22;4194;43.408;24.626;2022-09-01T08:38:26;26.70;99.90
8313;DHT22;4194;43.408;24.626;2022-09-01T08:40:54;26.70;99.90
8313;DHT22;4194;43.408;24.626;2022-09-01T08:46:31;26.50;99.90
8313;DHT22;4194;43.408;24.626;2022-09-01T08:49:00;26.40;99.90
8313;DHT22;4194;43.408;24.626;2022-09-01T08:51:52;27.40;99.90
8313;DHT22;4194;43.408;24.626;2022-09-01T08:54:21;26.70;99.90
8313;DHT22;4194;43.408;24.626;2022-09-01T08:57:02;26.80;99.90
8313;DHT22;4194;43.408;24.626;2022-09-01T08:59:29;26.90;99.90
8313;DHT22;4194;43.408;24.626;2022-09-01T09:04:52;26.80;99.90
8313;DHT22;4194;43.408;24.626;2022-09-01T09:10:57;27.30;99.90
8313;DHT22;4194;43.408;24.626;2022-09-01T09:16:46;27.50;99.90
8313;DHT22;4194;43.408;24.626;2022-09-01T09:21:51;28.20;99.90
8313;DHT22;4194;43.408;24.626;2022-09-01T09:29:51;28.50;99.90
8313;DHT22;4194;43.408;24.626;2022-09-01T09:32:19;29.30;99.90
8313;DHT22;4194;43.408;24.626;2022-09-01T09:34:45;28.70;99.90
8313;DHT22;4194;43.408;24.626;2022-09-01T09:37:21;28.90;99.20
8313;DHT22;4194;43.408;24.626;2022-09-01T09:42:29;27.90;96.10
8313;DHT22;4194;43.408;24.626;2022-09-01T09:44:55;28.30;97.30
8313;DHT22;4194;43.408;24.626;2022-09-01T09:50:34;28.60;96.50
8313;DHT22;4194;43.408;24.626;2022-09-01T09:53:21;29.90;97.40
8313;DHT22;4194;43.408;24.626;2022-09-01T09:56:08;29.00;95.20
8313;DHT22;4194;43.408;24.626;2022-09-01T09:58:43;29.10;94.00
8313;DHT22;4194;43.408;24.626;2022-09-01T10:03:50;30.00;93.40
8313;DHT22;4194;43.408;24.626;2022-09-01T10:06:35;30.00;92.70
8313;DHT22;4194;43.408;24.626;2022-09-01T10:09:09;29.60;91.80
8313;DHT22;4194;43.408;24.626;2022-09-01T10:11:53;29.90;92.10
8313;DHT22;4194;43.408;24.626;2022-09-01T10:14:21;30.30;92.50
8313;DHT22;4194;43.408;24.626;2022-09-01T10:17:01;31.20;91.40
8313;DHT22;4194;43.408;24.626;2022-09-01T10:19:32;29.60;88.40
8313;DHT22;4194;43.408;24.626;2022-09-01T10:21:58;31.10;92.10
8313;DHT22;4194;43.408;24.626;2022-09-01T10:24:34;30.10;91.40
8313;DHT22;4194;43.408;24.626;2022-09-01T10:27:15;29.80;92.00
8313;DHT22;4194;43.408;24.626;2022-09-01T10:29:47;29.90;90.40
8313;DHT22;4194;43.408;24.626;2022-09-01T10:32:21;30.30;91.70
8313;DHT22;4194;43.408;24.626;2022-09-01T10:34:48;29.90;90.50
8313;DHT22;4194;43.408;24.626;2022-09-01T10:37:15;30.10;90.90
8313;DHT22;4194;43.408;24.626;2022-09-01T10:40:10;30.00;89.60
8313;DHT22;4194;43.408;24.626;2022-09-01T10:42:37;30.70;84.90
8313;DHT22;4194;43.408;24.626;2022-09-01T10:45:03;32.20;83.00
8313;DHT22;4194;43.408;24.626;2022-09-01T10:47:33;32.90;78.60
8313;DHT22;4194;43.408;24.626;2022-09-01T10:55:30;33.30;72.80
8313;DHT22;4194;43.408;24.626;2022-09-01T10:58:31;33.60;72.20
8313;DHT22;4194;43.408;24.626;2022-09-01T11:01:00;34.20;71.80
8313;DHT22;4194;43.408;24.626;2022-09-01T11:03:52;33.70;69.70
8313;DHT22;4194;43.408;24.626;2022-09-01T11:06:43;34.50;69.70
8313;DHT22;4194;43.408;24.626;2022-09-01T11:09:42;35.20;68.80
8313;DHT22;4194;43.408;24.626;2022-09-01T11:17:36;36.30;63.70
8313;DHT22;4194;43.408;24.626;2022-09-01T11:20:07;35.80;61.30
8313;DHT22;4194;43.408;24.626;2022-09-01T11:23:00;36.10;62.30
8313;DHT22;4194;43.408;24.626;2022-09-01T11:42:08;36.30;59.40
8313;DHT22;4194;43.408;24.626;2022-09-01T11:47:22;36.50;57.60
8313;DHT22;4194;43.408;24.626;2022-09-01T11:49:57;36.60;58.20
8313;DHT22;4194;43.408;24.626;2022-09-01T11:52:26;36.50;58.30
8313;DHT22;4194;43.408;24.626;2022-09-01T11:54:54;36.70;57.30
8313;DHT22;4194;43.408;24.626;2022-09-01T11:59:46;37.10;58.30
8313;DHT22;4194;43.408;24.626;2022-09-01T12:02:26;38.30;53.70
8313;DHT22;4194;43.408;24.626;2022-09-01T12:04:54;38.20;53.30
8313;DHT22;4194;43.408;24.626;2022-09-01T12:07:40;38.50;54.30
8313;DHT22;4194;43.408;24.626;2022-09-01T12:13:19;39.80;52.00
8313;DHT22;4194;43.408;24.626;2022-09-01T12:15:56;40.10;51.60
8313;DHT22;4194;43.408;24.626;2022-09-01T12:18:26;40.90;49.70
8313;DHT22;4194;43.408;24.626;2022-09-01T12:20:54;41.20;48.40
8313;DHT22;4194;43.408;24.626;2022-09-01T12:25:54;42.40;45.60
8313;DHT22;4194;43.408;24.626;2022-09-01T12:28:25;42.10;45.30
8313;DHT22;4194;43.408;24.626;2022-09-01T12:30:52;42.20;45.50
8313;DHT22;4194;43.408;24.626;2022-09-01T12:33:20;42.30;46.20
8313;DHT22;4194;43.408;24.626;2022-09-01T12:35:47;43.10;44.20
8313;DHT22;4194;43.408;24.626;2022-09-01T12:38:30;41.50;43.40
8313;DHT22;4194;43.408;24.626;2022-09-01T12:40:56;40.90;45.50
8313;DHT22;4194;43.408;24.626;2022-09-01T12:43:35;41.80;45.60
8313;DHT22;4194;43.408;24.626;2022-09-01T12:46:04;42.60;45.70
8313;DHT22;4194;43.408;24.626;2022-09-01T12:48:33;44.60;43.20
8313;DHT22;4194;43.408;24.626;2022-09-01T12:51:19;44.20;43.40
8313;DHT22;4194;43.408;24.626;2022-09-01T12:53:54;43.10;44.50
8313;DHT22;4194;43.408;24.626;2022-09-01T12:56:32;44.30;42.70
8313;DHT22;4194;43.408;24.626;2022-09-01T12:59:08;44.10;41.60
8313;DHT22;4194;43.408;24.626;2022-09-01T13:01:38;45.50;41.00
8313;DHT22;4194;43.408;24.626;2022-09-01T13:04:13;45.30;40.30
8313;DHT22;4194;43.408;24.626;2022-09-01T13:06:40;46.30;40.10
8313;DHT22;4194;43.408;24.626;2022-09-01T13:09:06;46.50;38.70
8313;DHT22;4194;43.408;24.626;2022-09-01T13:11:32;45.10;37.40
8313;DHT22;4194;43.408;24.626;2022-09-01T13:13:58;45.40;38.70
8313;DHT22;4194;43.408;24.626;2022-09-01T13:16:25;46.10;39.90
8313;DHT22;4194;43.408;24.626;2022-09-01T13:18:51;46.10;40.40
8313;DHT22;4194;43.408;24.626;2022-09-01T13:21:16;44.80;39.90
8313;DHT22;4194;43.408;24.626;2022-09-01T13:23:42;42.50;42.70
8313;DHT22;4194;43.408;24.626;2022-09-01T13:26:08;40.40;45.10
8313;DHT22;4194;43.408;24.626;2022-09-01T13:28:35;38.60;46.90
8313;DHT22;4194;43.408;24.626;2022-09-01T13:31:03;40.90;47.50
8313;DHT22;4194;43.408;24.626;2022-09-01T13:33:30;43.90;44.10
8313;DHT22;4194;43.408;24.626;2022-09-01T13:35:56;43.30;41.90
8313;DHT22;4194;43.408;24.626;2022-09-01T13:38:22;45.20;40.10
8313;DHT22;4194;43.408;24.626;2022-09-01T13:40:49;45.90;39.00
8313;DHT22;4194;43.408;24.626;2022-09-01T13:43:17;45.60;39.10
8313;DHT22;4194;43.408;24.626;2022-09-01T13:45:44;44.40;38.50
8313;DHT22;4194;43.408;24.626;2022-09-01T13:48:12;45.50;40.00
8313;DHT22;4194;43.408;24.626;2022-09-01T13:50:38;44.50;41.70
8313;DHT22;4194;43.408;24.626;2022-09-01T13:53:04;43.90;41.70
8313;DHT22;4194;43.408;24.626;2022-09-01T13:55:33;43.90;40.30
8313;DHT22;4194;43.408;24.626;2022-09-01T13:57:59;43.30;40.60
8313;DHT22;4194;43.408;24.626;2022-09-01T14:00:31;41.70;44.10
8313;DHT22;4194;43.408;24.626;2022-09-01T14:03:05;39.70;46.10
8313;DHT22;4194;43.408;24.626;2022-09-01T14:05:37;38.70;48.20
8313;DHT22;4194;43.408;24.626;2022-09-01T14:08:05;38.70;47.00
8313;DHT22;4194;43.408;24.626;2022-09-01T14:10:36;39.80;47.80
8313;DHT22;4194;43.408;24.626;2022-09-01T14:13:02;39.10;48.10
8313;DHT22;4194;43.408;24.626;2022-09-01T14:15:28;38.60;50.40
8313;DHT22;4194;43.408;24.626;2022-09-01T14:17:55;36.60;50.70
8313;DHT22;4194;43.408;24.626;2022-09-01T14:20:24;35.40;53.60
8313;DHT22;4194;43.408;24.626;2022-09-01T14:22:50;34.20;54.60
8313;DHT22;4194;43.408;24.626;2022-09-01T14:25:17;32.80;57.80
8313;DHT22;4194;43.408;24.626;2022-09-01T14:27:44;32.40;60.90
8313;DHT22;4194;43.408;24.626;2022-09-01T14:30:18;32.00;61.80
8313;DHT22;4194;43.408;24.626;2022-09-01T14:32:44;30.80;63.30
8313;DHT22;4194;43.408;24.626;2022-09-01T14:35:10;31.10;64.30
8313;DHT22;4194;43.408;24.626;2022-09-01T14:37:37;30.40;65.50
8313;DHT22;4194;43.408;24.626;2022-09-01T14:40:03;30.70;64.80
8313;DHT22;4194;43.408;24.626;2022-09-01T14:42:30;30.90;66.20
8313;DHT22;4194;43.408;24.626;2022-09-01T14:44:56;30.90;66.90
8313;DHT22;4194;43.408;24.626;2022-09-01T14:47:22;30.70;68.00
8313;DHT22;4194;43.408;24.626;2022-09-01T14:52:16;30.00;70.30
8313;DHT22;4194;43.408;24.626;2022-09-01T14:54:43;29.90;71.50
8313;DHT22;4194;43.408;24.626;2022-09-01T14:57:09;28.70;72.60
8313;DHT22;4194;43.408;24.626;2022-09-01T14:59:35;29.10;72.60
8313;DHT22;4194;43.408;24.626;2022-09-01T15:02:02;30.20;74.90
8313;DHT22;4194;43.408;24.626;2022-09-01T15:04:27;29.60;73.60
8313;DHT22;4194;43.408;24.626;2022-09-01T15:06:54;29.20;74.10
8313;DHT22;4194;43.408;24.626;2022-09-01T15:09:20;29.00;75.20
8313;DHT22;4194;43.408;24.626;2022-09-01T15:11:46;28.80;78.30
8313;DHT22;4194;43.408;24.626;2022-09-01T15:14:11;28.70;79.40
8313;DHT22;4194;43.408;24.626;2022-09-01T15:16:37;28.80;80.10
8313;DHT22;4194;43.408;24.626;2022-09-01T15:19:08;28.80;79.20
8313;DHT22;4194;43.408;24.626;2022-09-01T15:21:34;28.70;80.60
8313;DHT22;4194;43.408;24.626;2022-09-01T15:24:01;28.60;81.50
8313;DHT22;4194;43.408;24.626;2022-09-01T15:26:28;27.80;81.70
8313;DHT22;4194;43.408;24.626;2022-09-01T15:28:55;28.50;82.00
8313;DHT22;4194;43.408;24.626;2022-09-01T15:31:25;28.40;83.10
8313;DHT22;4194;43.408;24.626;2022-09-01T15:33:57;28.30;84.70
8313;DHT22;4194;43.408;24.626;2022-09-01T15:36:25;28.50;87.00
8313;DHT22;4194;43.408;24.626;2022-09-01T15:38:53;27.10;87.20
8313;DHT22;4194;43.408;24.626;2022-09-01T15:41:21;28.10;88.70
8313;DHT22;4194;43.408;24.626;2022-09-01T15:43:47;28.10;87.10
8313;DHT22;4194;43.408;24.626;2022-09-01T15:46:14;28.10;87.40
8313;DHT22;4194;43.408;24.626;2022-09-01T15:48:40;27.70;86.90
8313;DHT22;4194;43.408;24.626;2022-09-01T15:53:56;27.60;89.20
8313;DHT22;4194;43.408;24.626;2022-09-01T15:56:26;27.40;89.20
8313;DHT22;4194;43.408;24.626;2022-09-01T15:58:52;27.30;89.00
8313;DHT22;4194;43.408;24.626;2022-09-01T16:01:19;27.70;90.30
8313;DHT22;4194;43.408;24.626;2022-09-01T16:03:47;27.60;91.10
8313;DHT22;4194;43.408;24.626;2022-09-01T16:06:12;27.20;93.10
8313;DHT22;4194;43.408;24.626;2022-09-01T16:08:39;27.60;93.60
8313;DHT22;4194;43.408;24.626;2022-09-01T16:11:07;26.90;94.30
8313;DHT22;4194;43.408;24.626;2022-09-01T16:13:38;27.20;92.70
8313;DHT22;4194;43.408;24.626;2022-09-01T16:18:51;27.00;92.60
8313;DHT22;4194;43.408;24.626;2022-09-01T16:24:09;27.20;94.90
8313;DHT22;4194;43.408;24.626;2022-09-01T16:26:35;26.80;95.00
8313;DHT22;4194;43.408;24.626;2022-09-01T16:29:08;26.20;95.40
8313;DHT22;4194;43.408;24.626;2022-09-01T16:34:12;26.50;98.50
8313;DHT22;4194;43.408;24.626;2022-09-01T16:53:18;26.00;99.90
8313;DHT22;4194;43.408;24.626;2022-09-01T16:56:04;26.60;99.90
8313;DHT22;4194;43.408;24.626;2022-09-01T17:06:38;26.50;99.90
8313;DHT22;4194;43.408;24.626;2022-09-01T17:14:43;25.30;99.90
8313;DHT22;4194;43.408;24.626;2022-09-01T17:17:17;25.90;99.90
8313;DHT22;4194;43.408;24.626;2022-09-01T17:19:44;24.50;99.90
8313;DHT22;4194;43.408;24.626;2022-09-01T17:22:16;25.30;99.90
8313;DHT22;4194;43.408;24.626;2022-09-01T17:24:45;24.50;99.90
8313;DHT22;4194;43.408;24.626;2022-09-01T17:29:56;25.10;99.90
8313;DHT22;4194;43.408;24.626;2022-09-01T17:32:43;25.10;99.90
8313;DHT22;4194;43.408;24.626;2022-09-01T17:38:29;25.00;99.90
8313;DHT22;4194;43.408;24.626;2022-09-01T17:47:08;24.20;99.90
8313;DHT22;4194;43.408;24.626;2022-09-01T17:49:49;25.30;99.90
8313;DHT22;4194;43.408;24.626;2022-09-01T17:55:39;24.80;99.90
8313;DHT22;4194;43.408;24.626;2022-09-01T18:00:53;26.10;99.90
8313;DHT22;4194;43.408;24.626;2022-09-01T18:06:09;25.90;99.90
8313;DHT22;4194;43.408;24.626;2022-09-01T18:08:40;24.60;99.90
8313;DHT22;4194;43.408;24.626;2022-09-01T18:11:30;24.00;99.90
